Aérodrome :
LOGIN :

S'inscrire | Disclaimer

   EN    FR    IT 

 










Légende :    VFR   VFR Marginal   IFR   IFR Intensif   IFR Très Intensif
Visi : 
Plafond : 
>= 8 km
>= 3000ft
5 à 8 km
1000 à 3000 ft
1500m à 5 km
500 à 1000 ft
800 à 1500m
200 à 500 ft
< 800m
< 200 ft
Symboles :   Orages  Brouillard  Fortes neiges  Fortes précipitations  Vent > 20 kt
SIGMETs :   Divers  Orages  Givrage  Turbulence  Onde Orograph.  Cendres Volcan.






- Altitude de l'aérodrome : 1506 ft
- Code IATA : BUJ


DAAD - Bou Saada

DERNIER METAR :
  • 211800Z 16006KT 4000 HZ FEW030 BKN100 12/02 Q1018

METARs EXPIRÉS :
  • 211700Z 14009KT 4000 HZ FEW030 BKN100 12/02 Q1017

TAF TAF DAAD
Valide du 21 à 18h jusqu'au 22 à 03h UTC


211700Z 2118/2203 14012KT 6000 NSC FEW030 BKN100
TEMPO 2118/2122 3000 HZ
PROB30 2118/2121 14015G25KT 1500 BLSA



MET'MAP, la Météo Aéronautique d'un coup d'oeil ! - Copyright ORBIFLY Décembre 2007 - Disclaimer

ORBIFLY MET'MAP TEAM :

Programmation & Développement : Alexandra Zaïnal
Sur une idée originale de : Baudouin d'Aumeries
Assistance à la programmation : Marc-Olivier Méhu
Soutien technique & logistique : Manuel Goepfert

Contact : metmap@orbifly.com




SOURCES & CREDITS :

   NOAA